sensor_id;sensor_type;location;lat;lon;timestamp;pressure;altitude;pressure_sealevel;temperature;humidity
7052;BME280;3567;52.444;13.556;2023-01-26T00:01:42;102026.25;;;0.00;100.00
7052;BME280;3567;52.444;13.556;2023-01-26T00:04:09;102027.09;;;0.01;100.00
7052;BME280;3567;52.444;13.556;2023-01-26T00:06:34;102024.44;;;0.01;100.00
7052;BME280;3567;52.444;13.556;2023-01-26T00:08:59;102022.63;;;0.01;100.00
7052;BME280;3567;52.444;13.556;2023-01-26T00:11:27;102020.97;;;0.00;100.00
7052;BME280;3567;52.444;13.556;2023-01-26T00:13:54;102020.13;;;-0.01;100.00
7052;BME280;3567;52.444;13.556;2023-01-26T00:16:20;102013.19;;;-0.02;100.00
7052;BME280;3567;52.444;13.556;2023-01-26T00:18:46;102013.44;;;-0.05;100.00
7052;BME280;3567;52.444;13.556;2023-01-26T00:21:17;102016.09;;;-0.05;100.00
7052;BME280;3567;52.444;13.556;2023-01-26T00:23:42;102011.75;;;-0.06;100.00
7052;BME280;3567;52.444;13.556;2023-01-26T00:26:11;102010.94;;;-0.06;100.00
7052;BME280;3567;52.444;13.556;2023-01-26T00:28:37;101995.13;;;-0.06;100.00
7052;BME280;3567;52.444;13.556;2023-01-26T00:31:07;101995.03;;;-0.05;100.00
7052;BME280;3567;52.444;13.556;2023-01-26T00:33:34;101992.25;;;-0.03;100.00
7052;BME280;3567;52.444;13.556;2023-01-26T00:35:59;101994.88;;;-0.03;100.00
7052;BME280;3567;52.444;13.556;2023-01-26T00:38:25;101994.03;;;-0.04;100.00
7052;BME280;3567;52.444;13.556;2023-01-26T00:40:50;101995.03;;;-0.05;100.00
7052;BME280;3567;52.444;13.556;2023-01-26T00:43:16;101991.28;;;-0.02;100.00
7052;BME280;3567;52.444;13.556;2023-01-26T00:45:41;101982.69;;;-0.04;100.00
7052;BME280;3567;52.444;13.556;2023-01-26T00:48:07;101982.78;;;-0.06;100.00
7052;BME280;3567;52.444;13.556;2023-01-26T00:50:32;101984.47;;;-0.05;100.00
7052;BME280;3567;52.444;13.556;2023-01-26T00:52:58;101982.69;;;-0.04;100.00
7052;BME280;3567;52.444;13.556;2023-01-26T00:55:24;101983.50;;;-0.04;100.00
7052;BME280;3567;52.444;13.556;2023-01-26T00:57:59;101985.03;;;-0.01;100.00
7052;BME280;3567;52.444;13.556;2023-01-26T01:00:25;101984.94;;;0.01;100.00
7052;BME280;3567;52.444;13.556;2023-01-26T01:02:51;101984.94;;;0.01;100.00
7052;BME280;3567;52.444;13.556;2023-01-26T01:05:17;101983.13;;;0.01;100.00
7052;BME280;3567;52.444;13.556;2023-01-26T01:07:42;101979.53;;;0.02;100.00
7052;BME280;3567;52.444;13.556;2023-01-26T01:10:08;101981.19;;;0.03;100.00
7052;BME280;3567;52.444;13.556;2023-01-26T01:12:34;101969.97;;;0.01;100.00
7052;BME280;3567;52.444;13.556;2023-01-26T01:14:59;101977.97;;;-0.01;100.00
7052;BME280;3567;52.444;13.556;2023-01-26T01:17:25;101978.84;;;0.00;100.00
7052;BME280;3567;52.444;13.556;2023-01-26T01:19:50;101973.81;;;-0.03;100.00
7052;BME280;3567;52.444;13.556;2023-01-26T01:22:15;101968.69;;;-0.05;100.00
7052;BME280;3567;52.444;13.556;2023-01-26T01:24:41;101977.41;;;-0.04;100.00
7052;BME280;3567;52.444;13.556;2023-01-26T01:27:06;101979.22;;;-0.05;100.00
7052;BME280;3567;52.444;13.556;2023-01-26T01:29:31;101967.13;;;-0.07;100.00
7052;BME280;3567;52.444;13.556;2023-01-26T01:31:57;101973.22;;;-0.07;100.00
7052;BME280;3567;52.444;13.556;2023-01-26T01:34:22;101970.72;;;-0.08;100.00
7052;BME280;3567;52.444;13.556;2023-01-26T01:36:48;101959.34;;;-0.09;100.00
7052;BME280;3567;52.444;13.556;2023-01-26T01:39:14;101953.13;;;-0.08;100.00
7052;BME280;3567;52.444;13.556;2023-01-26T01:41:39;101957.56;;;-0.08;100.00
7052;BME280;3567;52.444;13.556;2023-01-26T01:44:12;101943.56;;;-0.09;100.00
7052;BME280;3567;52.444;13.556;2023-01-26T01:46:39;101954.78;;;-0.07;100.00
7052;BME280;3567;52.444;13.556;2023-01-26T01:49:15;101948.69;;;-0.07;100.00
7052;BME280;3567;52.444;13.556;2023-01-26T01:51:46;101946.88;;;-0.07;100.00
7052;BME280;3567;52.444;13.556;2023-01-26T01:54:16;101939.94;;;-0.08;100.00
7052;BME280;3567;52.444;13.556;2023-01-26T01:56:47;101939.94;;;-0.08;100.00
7052;BME280;3567;52.444;13.556;2023-01-26T01:59:14;101933.03;;;-0.09;100.00
7052;BME280;3567;52.444;13.556;2023-01-26T02:01:45;101938.28;;;-0.09;100.00
7052;BME280;3567;52.444;13.556;2023-01-26T02:04:10;101935.50;;;-0.07;100.00
7052;BME280;3567;52.444;13.556;2023-01-26T02:06:48;101932.19;;;-0.09;100.00
7052;BME280;3567;52.444;13.556;2023-01-26T02:09:15;101930.25;;;-0.07;100.00
7052;BME280;3567;52.444;13.556;2023-01-26T02:12:04;101932.03;;;-0.08;100.00
7052;BME280;3567;52.444;13.556;2023-01-26T02:14:32;101929.28;;;-0.06;100.00
7052;BME280;3567;52.444;13.556;2023-01-26T02:16:58;101929.16;;;-0.05;100.00
7052;BME280;3567;52.444;13.556;2023-01-26T02:19:43;101918.63;;;-0.05;100.00
7052;BME280;3567;52.444;13.556;2023-01-26T02:22:42;101915.84;;;-0.03;100.00
7052;BME280;3567;52.444;13.556;2023-01-26T02:25:14;101907.81;;;-0.02;100.00
7052;BME280;3567;52.444;13.556;2023-01-26T02:27:42;101899.91;;;-0.02;100.00
7052;BME280;3567;52.444;13.556;2023-01-26T02:30:08;101901.72;;;-0.02;100.00
7052;BME280;3567;52.444;13.556;2023-01-26T02:32:34;101898.25;;;-0.03;100.00
7052;BME280;3567;52.444;13.556;2023-01-26T02:35:00;101890.34;;;-0.03;100.00
7052;BME280;3567;52.444;13.556;2023-01-26T02:37:25;101890.34;;;-0.03;100.00
7052;BME280;3567;52.444;13.556;2023-01-26T02:39:58;101885.78;;;-0.01;100.00
7052;BME280;3567;52.444;13.556;2023-01-26T02:42:26;101890.09;;;0.01;100.00
7052;BME280;3567;52.444;13.556;2023-01-26T02:45:13;101878.72;;;0.00;100.00
7052;BME280;3567;52.444;13.556;2023-01-26T02:47:39;101878.16;;;-0.04;100.00
7052;BME280;3567;52.444;13.556;2023-01-26T02:50:06;101879.81;;;-0.03;100.00
7052;BME280;3567;52.444;13.556;2023-01-26T02:52:31;101869.53;;;-0.06;100.00
7052;BME280;3567;52.444;13.556;2023-01-26T02:54:57;101873.03;;;-0.05;100.00
7052;BME280;3567;52.444;13.556;2023-01-26T02:57:43;101875.75;;;-0.07;100.00
7052;BME280;3567;52.444;13.556;2023-01-26T03:00:21;101876.75;;;-0.08;100.00
7052;BME280;3567;52.444;13.556;2023-01-26T03:02:50;101870.63;;;-0.08;100.00
7052;BME280;3567;52.444;13.556;2023-01-26T03:05:16;101876.16;;;-0.11;100.00
7052;BME280;3567;52.444;13.556;2023-01-26T03:07:41;101867.16;;;-0.09;100.00
7052;BME280;3567;52.444;13.556;2023-01-26T03:10:07;101875.06;;;-0.09;100.00
7052;BME280;3567;52.444;13.556;2023-01-26T03:12:33;101866.19;;;-0.08;100.00
7052;BME280;3567;52.444;13.556;2023-01-26T03:14:58;101876.75;;;-0.08;100.00
7052;BME280;3567;52.444;13.556;2023-01-26T03:17:42;101876.75;;;-0.08;100.00
7052;BME280;3567;52.444;13.556;2023-01-26T03:20:08;101880.91;;;-0.05;100.00
7052;BME280;3567;52.444;13.556;2023-01-26T03:22:53;101873.03;;;-0.05;100.00
7052;BME280;3567;52.444;13.556;2023-01-26T03:25:37;101876.50;;;-0.05;100.00
7052;BME280;3567;52.444;13.556;2023-01-26T03:28:21;101879.94;;;-0.04;100.00
7052;BME280;3567;52.444;13.556;2023-01-26T03:30:52;101874.53;;;-0.03;100.00
7052;BME280;3567;52.444;13.556;2023-01-26T03:33:18;101870.94;;;-0.02;100.00
7052;BME280;3567;52.444;13.556;2023-01-26T03:35:45;101871.53;;;0.02;100.00
7052;BME280;3567;52.444;13.556;2023-01-26T03:38:10;101866.25;;;0.02;100.00
7052;BME280;3567;52.444;13.556;2023-01-26T03:40:36;101866.09;;;0.04;100.00
7052;BME280;3567;52.444;13.556;2023-01-26T03:43:20;101871.66;;;0.01;100.00
7052;BME280;3567;52.444;13.556;2023-01-26T03:46:05;101866.50;;;-0.01;100.00
7052;BME280;3567;52.444;13.556;2023-01-26T03:48:49;101864.00;;;-0.03;100.00
7052;BME280;3567;52.444;13.556;2023-01-26T03:51:33;101865.81;;;-0.03;100.00
7052;BME280;3567;52.444;13.556;2023-01-26T03:54:18;101866.78;;;-0.04;100.00
7052;BME280;3567;52.444;13.556;2023-01-26T03:57:02;101871.91;;;-0.03;100.00
7052;BME280;3567;52.444;13.556;2023-01-26T03:59:28;101864.97;;;-0.04;100.00
7052;BME280;3567;52.444;13.556;2023-01-26T04:02:06;101864.00;;;-0.03;100.00
7052;BME280;3567;52.444;13.556;2023-01-26T04:04:51;101860.41;;;-0.02;100.00
7052;BME280;3567;52.444;13.556;2023-01-26T04:07:36;101855.03;;;0.00;100.00
7052;BME280;3567;52.444;13.556;2023-01-26T04:10:21;101858.50;;;0.01;100.00
7052;BME280;3567;52.444;13.556;2023-01-26T04:12:46;101849.63;;;0.02;100.00
7052;BME280;3567;52.444;13.556;2023-01-26T04:15:31;101863.47;;;0.04;100.00
7052;BME280;3567;52.444;13.556;2023-01-26T04:18:15;101852.94;;;0.04;100.00
7052;BME280;3567;52.444;13.556;2023-01-26T04:21:03;101851.03;;;0.06;100.00
7052;BME280;3567;52.444;13.556;2023-01-26T04:23:47;101850.31;;;0.04;100.00
7052;BME280;3567;52.444;13.556;2023-01-26T04:26:13;101846.84;;;0.03;100.00
7052;BME280;3567;52.444;13.556;2023-01-26T04:28:38;101844.91;;;0.05;100.00
7052;BME280;3567;52.444;13.556;2023-01-26T04:31:04;101836.06;;;0.06;100.00
7052;BME280;3567;52.444;13.556;2023-01-26T04:33:29;101835.22;;;0.06;100.00
7052;BME280;3567;52.444;13.556;2023-01-26T04:35:55;101832.44;;;0.07;100.00
7052;BME280;3567;52.444;13.556;2023-01-26T04:38:20;101829.66;;;0.09;100.00
7052;BME280;3567;52.444;13.556;2023-01-26T04:40:55;101830.38;;;0.11;100.00
7052;BME280;3567;52.444;13.556;2023-01-26T04:43:20;101829.53;;;0.10;100.00
7052;BME280;3567;52.444;13.556;2023-01-26T04:46:06;101826.88;;;0.10;100.00
7052;BME280;3567;52.444;13.556;2023-01-26T04:48:32;101831.06;;;0.13;100.00
7052;BME280;3567;52.444;13.556;2023-01-26T04:50:59;101830.09;;;0.14;100.00
7052;BME280;3567;52.444;13.556;2023-01-26T04:53:26;101822.19;;;0.14;100.00
7052;BME280;3567;52.444;13.556;2023-01-26T04:55:51;101820.53;;;0.13;100.00
7052;BME280;3567;52.444;13.556;2023-01-26T04:58:17;101807.22;;;0.14;100.00
7052;BME280;3567;52.444;13.556;2023-01-26T05:00:42;101813.31;;;0.15;100.00
7052;BME280;3567;52.444;13.556;2023-01-26T05:03:08;101811.50;;;0.15;100.00
7052;BME280;3567;52.444;13.556;2023-01-26T05:05:37;101811.66;;;0.14;100.00
7052;BME280;3567;52.444;13.556;2023-01-26T05:08:04;101814.97;;;0.16;100.00
7052;BME280;3567;52.444;13.556;2023-01-26T05:10:30;101810.25;;;0.10;100.00
7052;BME280;3567;52.444;13.556;2023-01-26T05:12:55;101806.94;;;0.08;100.00
7052;BME280;3567;52.444;13.556;2023-01-26T05:15:21;101807.19;;;0.05;100.00
7052;BME280;3567;52.444;13.556;2023-01-26T05:17:47;101805.53;;;0.04;100.00
7052;BME280;3567;52.444;13.556;2023-01-26T05:20:13;101812.44;;;0.05;100.00
7052;BME280;3567;52.444;13.556;2023-01-26T05:22:39;101805.53;;;0.04;100.00
7052;BME280;3567;52.444;13.556;2023-01-26T05:25:04;101808.56;;;-0.01;100.00
7052;BME280;3567;52.444;13.556;2023-01-26T05:27:30;101802.75;;;-0.05;100.00
7052;BME280;3567;52.444;13.556;2023-01-26T05:29:55;101813.97;;;-0.03;100.00
7052;BME280;3567;52.444;13.556;2023-01-26T05:32:28;101821.88;;;-0.03;100.00
7052;BME280;3567;52.444;13.556;2023-01-26T05:34:54;101817.44;;;-0.02;100.00
7052;BME280;3567;52.444;13.556;2023-01-26T05:37:20;101816.59;;;-0.03;100.00
7052;BME280;3567;52.444;13.556;2023-01-26T05:39:45;101821.03;;;-0.03;100.00
7052;BME280;3567;52.444;13.556;2023-01-26T05:42:11;101815.19;;;-0.07;100.00
7052;BME280;3567;52.444;13.556;2023-01-26T05:44:37;101810.75;;;-0.06;100.00
7052;BME280;3567;52.444;13.556;2023-01-26T05:47:02;101818.66;;;-0.06;100.00
7052;BME280;3567;52.444;13.556;2023-01-26T05:49:28;101817.81;;;-0.07;100.00
7052;BME280;3567;52.444;13.556;2023-01-26T05:51:53;101813.53;;;-0.08;100.00
7052;BME280;3567;52.444;13.556;2023-01-26T05:54:19;101817.72;;;-0.05;100.00
7052;BME280;3567;52.444;13.556;2023-01-26T05:56:44;101822.13;;;-0.06;100.00
7052;BME280;3567;52.444;13.556;2023-01-26T05:59:09;101817.72;;;-0.05;100.00
7052;BME280;3567;52.444;13.556;2023-01-26T06:01:35;101809.91;;;-0.07;100.00
7052;BME280;3567;52.444;13.556;2023-01-26T06:04:00;101811.88;;;-0.09;100.00
7052;BME280;3567;52.444;13.556;2023-01-26T06:06:26;101810.06;;;-0.08;100.00
7052;BME280;3567;52.444;13.556;2023-01-26T06:08:51;101810.19;;;-0.10;100.00
7052;BME280;3567;52.444;13.556;2023-01-26T06:11:17;101807.81;;;-0.13;100.00
7052;BME280;3567;52.444;13.556;2023-01-26T06:13:42;101807.00;;;-0.13;100.00
7052;BME280;3567;52.444;13.556;2023-01-26T06:16:07;101809.88;;;-0.16;100.00
7052;BME280;3567;52.444;13.556;2023-01-26T06:18:33;101824.00;;;-0.17;100.00
7052;BME280;3567;52.444;13.556;2023-01-26T06:20:58;101824.00;;;-0.17;100.00
7052;BME280;3567;52.444;13.556;2023-01-26T06:23:27;101821.06;;;-0.24;100.00
7052;BME280;3567;52.444;13.556;2023-01-26T06:25:57;101825.38;;;-0.23;100.00
7052;BME280;3567;52.444;13.556;2023-01-26T06:28:23;101832.31;;;-0.22;100.00
7052;BME280;3567;52.444;13.556;2023-01-26T06:30:49;101834.00;;;-0.21;100.00
7052;BME280;3567;52.444;13.556;2023-01-26T06:33:14;101821.91;;;-0.23;100.00
7052;BME280;3567;52.444;13.556;2023-01-26T06:35:39;101820.38;;;-0.26;100.00
7052;BME280;3567;52.444;13.556;2023-01-26T06:38:05;101817.63;;;-0.24;100.00
7052;BME280;3567;52.444;13.556;2023-01-26T06:40:30;101822.88;;;-0.24;100.00
7052;BME280;3567;52.444;13.556;2023-01-26T06:42:56;101822.75;;;-0.23;100.00
7052;BME280;3567;52.444;13.556;2023-01-26T06:45:22;101830.50;;;-0.21;100.00
7052;BME280;3567;52.444;13.556;2023-01-26T06:47:48;101830.50;;;-0.21;100.00
7052;BME280;3567;52.444;13.556;2023-01-26T06:50:19;101827.03;;;-0.22;100.00
7052;BME280;3567;52.444;13.556;2023-01-26T06:52:53;101828.59;;;-0.19;100.00
7052;BME280;3567;52.444;13.556;2023-01-26T06:55:22;101832.06;;;-0.19;100.00
7052;BME280;3567;52.444;13.556;2023-01-26T06:57:52;101836.34;;;-0.18;100.00
7052;BME280;3567;52.444;13.556;2023-01-26T07:00:18;101830.84;;;-0.15;100.00
7052;BME280;3567;52.444;13.556;2023-01-26T07:02:43;101832.88;;;-0.18;100.00
7052;BME280;3567;52.444;13.556;2023-01-26T07:05:08;101825.13;;;-0.20;100.00
7052;BME280;3567;52.444;13.556;2023-01-26T07:07:34;101823.47;;;-0.21;100.00
7052;BME280;3567;52.444;13.556;2023-01-26T07:09:59;101820.69;;;-0.19;100.00
7052;BME280;3567;52.444;13.556;2023-01-26T07:12:25;101827.63;;;-0.18;100.00
7052;BME280;3567;52.444;13.556;2023-01-26T07:14:50;101828.59;;;-0.19;100.00
7052;BME280;3567;52.444;13.556;2023-01-26T07:17:16;101830.09;;;-0.17;100.00
7052;BME280;3567;52.444;13.556;2023-01-26T07:19:41;101830.84;;;-0.15;100.00
7052;BME280;3567;52.444;13.556;2023-01-26T07:22:07;101828.31;;;-0.16;100.00
7052;BME280;3567;52.444;13.556;2023-01-26T07:24:32;101831.81;;;-0.16;100.00
7052;BME280;3567;52.444;13.556;2023-01-26T07:26:58;101832.34;;;-0.12;100.00
7052;BME280;3567;52.444;13.556;2023-01-26T07:29:23;101829.72;;;-0.12;100.00
7052;BME280;3567;52.444;13.556;2023-01-26T07:31:49;101824.31;;;-0.11;100.00
7052;BME280;3567;52.444;13.556;2023-01-26T07:34:14;101823.38;;;-0.10;100.00
7052;BME280;3567;52.444;13.556;2023-01-26T07:36:40;101817.13;;;-0.09;100.00
7052;BME280;3567;52.444;13.556;2023-01-26T07:39:05;101828.63;;;-0.10;100.00
7052;BME280;3567;52.444;13.556;2023-01-26T07:41:31;101830.44;;;-0.10;100.00
7052;BME280;3567;52.444;13.556;2023-01-26T07:43:57;101835.44;;;-0.07;100.00
7052;BME280;3567;52.444;13.556;2023-01-26T07:46:22;101831.97;;;-0.08;100.00
7052;BME280;3567;52.444;13.556;2023-01-26T07:48:48;101827.66;;;-0.09;100.00
7052;BME280;3567;52.444;13.556;2023-01-26T07:51:14;101823.63;;;-0.13;100.00
7052;BME280;3567;52.444;13.556;2023-01-26T07:53:39;101826.41;;;-0.14;100.00
7052;BME280;3567;52.444;13.556;2023-01-26T07:56:12;101823.91;;;-0.16;100.00
7052;BME280;3567;52.444;13.556;2023-01-26T07:58:38;101827.38;;;-0.15;100.00
7052;BME280;3567;52.444;13.556;2023-01-26T08:01:12;101830.00;;;-0.15;100.00
7052;BME280;3567;52.444;13.556;2023-01-26T08:03:37;101838.16;;;-0.18;100.00
7052;BME280;3567;52.444;13.556;2023-01-26T08:06:04;101837.31;;;-0.19;100.00
7052;BME280;3567;52.444;13.556;2023-01-26T08:08:30;101835.38;;;-0.17;100.00
7052;BME280;3567;52.444;13.556;2023-01-26T08:10:56;101838.72;;;-0.15;100.00
7052;BME280;3567;52.444;13.556;2023-01-26T08:13:22;101845.66;;;-0.14;100.00
7052;BME280;3567;52.444;13.556;2023-01-26T08:15:48;101842.06;;;-0.13;100.00
7052;BME280;3567;52.444;13.556;2023-01-26T08:18:13;101835.97;;;-0.13;100.00
7052;BME280;3567;52.444;13.556;2023-01-26T08:20:38;101837.75;;;-0.14;100.00
7052;BME280;3567;52.444;13.556;2023-01-26T08:23:04;101841.91;;;-0.11;100.00
7052;BME280;3567;52.444;13.556;2023-01-26T08:25:29;101845.28;;;-0.09;100.00
7052;BME280;3567;52.444;13.556;2023-01-26T08:27:57;101840.84;;;-0.09;100.00
7052;BME280;3567;52.444;13.556;2023-01-26T08:30:22;101841.53;;;-0.07;100.00
7052;BME280;3567;52.444;13.556;2023-01-26T08:32:47;101838.88;;;-0.07;100.00
7052;BME280;3567;52.444;13.556;2023-01-26T08:35:13;101842.25;;;-0.05;100.00
7052;BME280;3567;52.444;13.556;2023-01-26T08:37:38;101844.88;;;-0.05;100.00
7052;BME280;3567;52.444;13.556;2023-01-26T08:40:04;101833.38;;;-0.04;100.00
7052;BME280;3567;52.444;13.556;2023-01-26T08:42:29;101830.47;;;-0.01;100.00
7052;BME280;3567;52.444;13.556;2023-01-26T08:44:54;101828.78;;;-0.02;100.00
7052;BME280;3567;52.444;13.556;2023-01-26T08:47:20;101842.09;;;-0.03;100.00
7052;BME280;3567;52.444;13.556;2023-01-26T08:49:45;101835.44;;;-0.07;100.00
7052;BME280;3567;52.444;13.556;2023-01-26T08:52:11;101842.50;;;-0.08;100.00
7052;BME280;3567;52.444;13.556;2023-01-26T08:54:36;101847.06;;;-0.10;100.00
7052;BME280;3567;52.444;13.556;2023-01-26T08:57:01;101845.13;;;-0.08;100.00
7052;BME280;3567;52.444;13.556;2023-01-26T08:59:26;101845.13;;;-0.08;100.00
7052;BME280;3567;52.444;13.556;2023-01-26T09:01:52;101842.06;;;-0.13;100.00
7052;BME280;3567;52.444;13.556;2023-01-26T09:04:17;101851.75;;;-0.13;100.00
7052;BME280;3567;52.444;13.556;2023-01-26T09:06:42;101849.78;;;-0.21;100.00
7052;BME280;3567;52.444;13.556;2023-01-26T09:09:08;101847.28;;;-0.22;100.00
7052;BME280;3567;52.444;13.556;2023-01-26T09:11:37;101851.00;;;-0.25;100.00
7052;BME280;3567;52.444;13.556;2023-01-26T09:14:03;101850.88;;;-0.23;100.00
7052;BME280;3567;52.444;13.556;2023-01-26T09:16:28;101852.44;;;-0.21;100.00
7052;BME280;3567;52.444;13.556;2023-01-26T09:18:53;101851.72;;;-0.23;100.00
7052;BME280;3567;52.444;13.556;2023-01-26T09:21:19;101846.44;;;-0.23;100.00
7052;BME280;3567;52.444;13.556;2023-01-26T09:23:45;101851.72;;;-0.23;100.00
7052;BME280;3567;52.444;13.556;2023-01-26T09:26:10;101851.16;;;-0.27;100.00
7052;BME280;3567;52.444;13.556;2023-01-26T09:28:36;101851.53;;;-0.31;100.00
7052;BME280;3567;52.444;13.556;2023-01-26T09:31:08;101862.44;;;-0.36;100.00
7052;BME280;3567;52.444;13.556;2023-01-26T09:33:34;101867.00;;;-0.38;100.00
7052;BME280;3567;52.444;13.556;2023-01-26T09:36:04;101862.59;;;-0.37;100.00
7052;BME280;3567;52.444;13.556;2023-01-26T09:38:30;101862.69;;;-0.39;100.00
7052;BME280;3567;52.444;13.556;2023-01-26T09:43:56;101856.88;;;-0.42;100.00
7052;BME280;3567;52.444;13.556;2023-01-26T09:49:04;101860.44;;;-0.43;100.00
7052;BME280;3567;52.444;13.556;2023-01-26T09:56:29;101853.97;;;-0.39;100.00
7052;BME280;3567;52.444;13.556;2023-01-26T10:02:27;101859.09;;;-0.38;100.00
7052;BME280;3567;52.444;13.556;2023-01-26T10:04:57;101850.25;;;-0.37;100.00
7052;BME280;3567;52.444;13.556;2023-01-26T10:07:25;101845.31;;;-0.30;100.00
7052;BME280;3567;52.444;13.556;2023-01-26T10:09:51;101843.34;;;-0.28;100.00
7052;BME280;3567;52.444;13.556;2023-01-26T10:12:34;101842.53;;;-0.29;100.00
7052;BME280;3567;52.444;13.556;2023-01-26T10:17:32;101837.94;;;-0.36;100.00
7052;BME280;3567;52.444;13.556;2023-01-26T10:20:06;101831.56;;;-0.34;100.00
7052;BME280;3567;52.444;13.556;2023-01-26T10:22:47;101831.41;;;-0.32;100.00
7052;BME280;3567;52.444;13.556;2023-01-26T10:25:44;101825.31;;;-0.33;100.00
7052;BME280;3567;52.444;13.556;2023-01-26T10:28:16;101832.28;;;-0.32;100.00
7052;BME280;3567;52.444;13.556;2023-01-26T10:30:44;101825.91;;;-0.29;100.00
7052;BME280;3567;52.444;13.556;2023-01-26T10:33:17;101836.19;;;-0.26;100.00
7052;BME280;3567;52.444;13.556;2023-01-26T10:35:43;101829.81;;;-0.23;100.00
7052;BME280;3567;52.444;13.556;2023-01-26T10:38:38;101824.53;;;-0.23;100.00
7052;BME280;3567;52.444;13.556;2023-01-26T10:41:06;101820.38;;;-0.26;100.00
7052;BME280;3567;52.444;13.556;2023-01-26T10:46:30;101810.78;;;-0.27;100.00
7052;BME280;3567;52.444;13.556;2023-01-26T10:51:35;101796.13;;;-0.30;100.00
7052;BME280;3567;52.444;13.556;2023-01-26T10:54:21;101802.47;;;-0.32;100.00
7052;BME280;3567;52.444;13.556;2023-01-26T10:59:36;101798.75;;;-0.30;100.00
7052;BME280;3567;52.444;13.556;2023-01-26T11:04:34;101795.28;;;-0.30;100.00
7052;BME280;3567;52.444;13.556;2023-01-26T11:09:48;101787.91;;;-0.36;100.00
7052;BME280;3567;52.444;13.556;2023-01-26T11:12:20;101792.91;;;-0.33;100.00
7052;BME280;3567;52.444;13.556;2023-01-26T11:15:03;101799.72;;;-0.31;100.00
7052;BME280;3567;52.444;13.556;2023-01-26T11:17:34;101791.22;;;-0.34;100.00
7052;BME280;3567;52.444;13.556;2023-01-26T11:23:14;101794.16;;;-0.37;100.00
7052;BME280;3567;52.444;13.556;2023-01-26T11:31:44;101778.22;;;-0.36;100.00
7052;BME280;3567;52.444;13.556;2023-01-26T11:37:42;101776.84;;;-0.30;100.00
7052;BME280;3567;52.444;13.556;2023-01-26T11:40:22;101766.56;;;-0.33;100.00
7052;BME280;3567;52.444;13.556;2023-01-26T11:43:20;101761.06;;;-0.30;100.00
7052;BME280;3567;52.444;13.556;2023-01-26T11:51:18;101761.50;;;-0.25;100.00
7052;BME280;3567;52.444;13.556;2023-01-26T11:54:14;101750.97;;;-0.25;100.00
7052;BME280;3567;52.444;13.556;2023-01-26T11:59:45;101742.22;;;-0.25;100.00
7052;BME280;3567;52.444;13.556;2023-01-26T12:04:47;101746.38;;;-0.23;100.00
7052;BME280;3567;52.444;13.556;2023-01-26T12:07:26;101740.84;;;-0.20;100.00
7052;BME280;3567;52.444;13.556;2023-01-26T12:09:53;101742.38;;;-0.17;100.00
7052;BME280;3567;52.444;13.556;2023-01-26T12:12:35;101735.06;;;-0.14;100.00
7052;BME280;3567;52.444;13.556;2023-01-26T12:15:09;101727.59;;;-0.09;100.00
7052;BME280;3567;52.444;13.556;2023-01-26T12:23:32;101710.91;;;-0.19;100.00
7052;BME280;3567;52.444;13.556;2023-01-26T12:26:06;101708.28;;;-0.19;100.00
7052;BME280;3567;52.444;13.556;2023-01-26T12:28:43;101711.91;;;-0.20;100.00
7052;BME280;3567;52.444;13.556;2023-01-26T12:31:21;101701.63;;;-0.23;100.00
7052;BME280;3567;52.444;13.556;2023-01-26T12:33:52;101707.03;;;-0.24;100.00
7052;BME280;3567;52.444;13.556;2023-01-26T12:39:14;101706.63;;;-0.20;100.00
7052;BME280;3567;52.444;13.556;2023-01-26T12:52:13;101699.66;;;-0.31;100.00
7052;BME280;3567;52.444;13.556;2023-01-26T12:54:58;101693.28;;;-0.28;100.00
7052;BME280;3567;52.444;13.556;2023-01-26T12:57:30;101694.69;;;-0.24;100.00
7052;BME280;3567;52.444;13.556;2023-01-26T13:00:05;101707.59;;;-0.21;100.00
7052;BME280;3567;52.444;13.556;2023-01-26T13:02:34;101698.16;;;-0.23;100.00
7052;BME280;3567;52.444;13.556;2023-01-26T13:05:01;101700.94;;;-0.25;100.00
7052;BME280;3567;52.444;13.556;2023-01-26T13:07:38;101703.56;;;-0.25;100.00
7052;BME280;3567;52.444;13.556;2023-01-26T13:10:08;101703.56;;;-0.25;100.00
7052;BME280;3567;52.444;13.556;2023-01-26T13:15:18;101702.84;;;-0.27;100.00
7052;BME280;3567;52.444;13.556;2023-01-26T13:17:55;101708.13;;;-0.27;100.00
7052;BME280;3567;52.444;13.556;2023-01-26T13:28:40;101708.84;;;-0.25;100.00
7052;BME280;3567;52.444;13.556;2023-01-26T13:31:06;101715.91;;;-0.25;100.00
7052;BME280;3567;52.444;13.556;2023-01-26T13:33:33;101706.19;;;-0.25;100.00
7052;BME280;3567;52.444;13.556;2023-01-26T13:36:02;101704.41;;;-0.24;100.00
7052;BME280;3567;52.444;13.556;2023-01-26T13:38:57;101713.28;;;-0.25;100.00
7052;BME280;3567;52.444;13.556;2023-01-26T13:41:24;101709.81;;;-0.26;100.00
7052;BME280;3567;52.444;13.556;2023-01-26T13:43:54;101719.63;;;-0.28;100.00
7052;BME280;3567;52.444;13.556;2023-01-26T13:46:38;101723.38;;;-0.31;100.00
7052;BME280;3567;52.444;13.556;2023-01-26T13:49:05;101719.91;;;-0.31;100.00
7052;BME280;3567;52.444;13.556;2023-01-26T13:51:45;101726.09;;;-0.32;100.00
7052;BME280;3567;52.444;13.556;2023-01-26T13:54:12;101735.94;;;-0.34;100.00
7052;BME280;3567;52.444;13.556;2023-01-26T13:56:38;101736.09;;;-0.36;100.00
7052;BME280;3567;52.444;13.556;2023-01-26T13:59:14;101740.63;;;-0.38;100.00
7052;BME280;3567;52.444;13.556;2023-01-26T14:01:46;101730.25;;;-0.39;100.00
7052;BME280;3567;52.444;13.556;2023-01-26T14:04:15;101734.81;;;-0.41;100.00
7052;BME280;3567;52.444;13.556;2023-01-26T14:06:44;101732.88;;;-0.39;100.00
7052;BME280;3567;52.444;13.556;2023-01-26T14:09:12;101727.63;;;-0.39;100.00
7052;BME280;3567;52.444;13.556;2023-01-26T14:11:39;101722.50;;;-0.41;100.00
7052;BME280;3567;52.444;13.556;2023-01-26T14:14:25;101724.56;;;-0.44;100.00
7052;BME280;3567;52.444;13.556;2023-01-26T14:16:51;101730.25;;;-0.39;100.00
7052;BME280;3567;52.444;13.556;2023-01-26T14:19:21;101720.00;;;-0.42;100.00
7052;BME280;3567;52.444;13.556;2023-01-26T14:21:58;101728.59;;;-0.40;100.00
7052;BME280;3567;52.444;13.556;2023-01-26T14:24:35;101719.72;;;-0.39;100.00
7052;BME280;3567;52.444;13.556;2023-01-26T14:27:04;101730.25;;;-0.39;100.00
7052;BME280;3567;52.444;13.556;2023-01-26T14:29:36;101731.06;;;-0.39;100.00